Time;durP1;ratioP1;P1;durP2;ratioP2;P2;SDS_P1;SDS_P2;PMS_P1;PMS_P2;Temp;Humidity;BMP_temperature;BMP_pressure;BME280_temperature;BME280_humidity;BME280_pressure;Samples;Min_cycle;Max_cycle;Signal;HPM_P1;HPM_P2
2024/01/21 00:01:13;;;;;;;0.10;0.10;;;;;;;-4.48;100.00;101636.34;5051169;28;20524;-52
2024/01/21 00:03:41;;;;;;;0.10;0.10;;;;;;;-4.53;100.00;101628.31;5051254;28;20453;-52
2024/01/21 00:06:07;;;;;;;0.10;0.10;;;;;;;-4.47;100.00;101628.66;5051025;28;20474;-53
2024/01/21 00:08:34;;;;;;;0.10;0.10;;;;;;;-4.66;100.00;101625.88;5051166;28;20533;-53
2024/01/21 00:11:00;;;;;;;0.10;0.10;;;;;;;-4.61;100.00;101613.16;5051222;28;20477;-52
2024/01/21 00:13:28;;;;;;;0.10;0.10;;;;;;;-4.70;100.00;101615.25;5051422;28;20874;-53
2024/01/21 00:15:54;;;;;;;0.10;0.10;;;;;;;-4.68;100.00;101611.91;5051131;28;20453;-53
2024/01/21 00:18:21;;;;;;;0.10;0.10;;;;;;;-4.70;100.00;101604.88;5044888;28;20575;-53
2024/01/21 00:20:48;;;;;;;0.10;0.10;;;;;;;-4.69;100.00;101604.06;5043937;28;20821;-52
2024/01/21 00:23:14;;;;;;;0.20;0.10;;;;;;;-4.66;100.00;101601.63;5051103;28;20443;-52
2024/01/21 00:25:41;;;;;;;0.10;0.10;;;;;;;-4.74;100.00;101598.63;5043013;28;20534;-51
2024/01/21 00:28:07;;;;;;;0.20;0.10;;;;;;;-4.77;100.00;101601.06;5051117;28;20443;-53
2024/01/21 00:30:33;;;;;;;0.10;0.10;;;;;;;-4.72;100.00;101601.31;5050851;28;20482;-52
2024/01/21 00:33:00;;;;;;;0.10;0.10;;;;;;;-4.76;100.00;101602.84;5051104;28;20850;-53
2024/01/21 00:35:27;;;;;;;0.10;0.10;;;;;;;-4.91;100.00;101607.22;5050969;28;20869;-53
2024/01/21 00:37:53;;;;;;;0.10;0.10;;;;;;;-4.91;100.00;101613.28;5032280;28;20491;-52
2024/01/21 00:40:19;;;;;;;0.10;0.10;;;;;;;-4.77;100.00;101608.84;5035103;28;20533;-52
2024/01/21 00:42:46;;;;;;;0.10;0.10;;;;;;;-4.87;100.00;101616.94;5051189;28;20473;-52
2024/01/21 00:45:12;;;;;;;0.10;0.10;;;;;;;-4.91;100.00;101630.53;5051175;28;20450;-52
2024/01/21 00:47:39;;;;;;;0.10;0.10;;;;;;;-4.92;100.00;101639.13;5051138;28;21235;-52
2024/01/21 00:50:06;;;;;;;0.10;0.10;;;;;;;-4.93;100.00;101630.47;5050036;28;20461;-52
2024/01/21 00:52:32;;;;;;;0.10;0.10;;;;;;;-4.93;100.00;101616.59;5050846;28;20580;-52
2024/01/21 00:54:59;;;;;;;0.10;0.10;;;;;;;-4.92;100.00;101619.28;5050934;28;20494;-52
2024/01/21 00:57:25;;;;;;;0.10;0.10;;;;;;;-4.75;100.00;101617.59;5051094;28;20490;-52
2024/01/21 00:59:52;;;;;;;0.10;0.10;;;;;;;-4.79;100.00;101624.31;5050909;28;20446;-52
2024/01/21 01:02:18;;;;;;;0.10;0.10;;;;;;;-4.75;100.00;101617.59;5050879;28;20561;-52
2024/01/21 01:04:45;;;;;;;0.10;0.10;;;;;;;-4.74;100.00;101610.72;5051478;28;20882;-53
2024/01/21 01:07:12;;;;;;;0.10;0.10;;;;;;;-4.59;100.00;101596.84;5054818;28;20474;-52
2024/01/21 01:09:38;;;;;;;0.10;0.10;;;;;;;-4.60;100.00;101600.25;5054438;28;20821;-53
2024/01/21 01:12:05;;;;;;;0.10;0.10;;;;;;;-4.65;100.00;101591.38;5054475;28;20520;-52
2024/01/21 01:14:32;;;;;;;0.20;0.10;;;;;;;-4.61;100.00;101590.72;5054304;28;20966;-53
2024/01/21 01:16:58;;;;;;;0.10;0.10;;;;;;;-4.74;100.00;101593.44;5054576;28;20545;-52
2024/01/21 01:19:25;;;;;;;0.10;0.10;;;;;;;-4.72;100.00;101588.34;5039676;28;20496;-52
2024/01/21 01:21:51;;;;;;;0.10;0.10;;;;;;;-4.62;100.00;101595.81;5054262;28;20999;-52
2024/01/21 01:24:19;;;;;;;0.10;0.10;;;;;;;-4.54;100.00;101595.38;5054326;28;20461;-53
2024/01/21 01:26:46;;;;;;;0.10;0.10;;;;;;;-4.60;100.00;101586.41;5046189;28;20450;-52
2024/01/21 01:29:12;;;;;;;0.10;0.10;;;;;;;-4.68;100.00;101593.75;5054272;28;20867;-52
2024/01/21 01:31:39;;;;;;;0.10;0.10;;;;;;;-4.92;100.00;101597.66;5054159;28;20561;-52
2024/01/21 01:34:05;;;;;;;0.10;0.10;;;;;;;-4.86;100.00;101596.28;5053998;28;20458;-52
2024/01/21 01:36:32;;;;;;;0.10;0.10;;;;;;;-4.77;100.00;101598.47;5046508;28;20965;-52
2024/01/21 01:38:59;;;;;;;0.10;0.10;;;;;;;-4.71;100.00;101593.59;5033905;28;20892;-52
2024/01/21 01:41:25;;;;;;;0.10;0.10;;;;;;;-4.71;100.00;101595.31;5047222;28;20467;-52
2024/01/21 01:43:52;;;;;;;0.10;0.10;;;;;;;-4.93;100.00;101593.28;5053954;28;20451;-52
2024/01/21 01:46:19;;;;;;;0.10;0.10;;;;;;;-4.84;100.00;101583.38;5053854;28;20462;-53
2024/01/21 01:48:45;;;;;;;0.10;0.10;;;;;;;-4.79;100.00;101584.53;5014788;28;20452;-52
2024/01/21 01:51:12;;;;;;;0.10;0.10;;;;;;;-4.69;100.00;101594.56;5041067;28;20536;-52
2024/01/21 01:53:39;;;;;;;0.20;0.10;;;;;;;-4.68;100.00;101598.94;5053967;28;20469;-52
2024/01/21 01:56:07;;;;;;;0.10;0.10;;;;;;;-4.82;100.00;101590.44;5053699;28;20549;-52
2024/01/21 01:58:35;;;;;;;0.10;0.10;;;;;;;-4.92;100.00;101584.69;5054120;28;20577;-51
2024/01/21 02:01:01;;;;;;;0.10;0.10;;;;;;;-4.92;100.00;101571.72;5053305;28;20474;-52
2024/01/21 02:03:28;;;;;;;0.10;0.10;;;;;;;-4.79;100.00;101569.88;5053988;28;20457;-52
2024/01/21 02:05:55;;;;;;;0.10;0.10;;;;;;;-4.62;100.00;101560.41;5053588;28;20451;-52
2024/01/21 02:08:21;;;;;;;0.10;0.10;;;;;;;-4.57;100.00;101553.72;5053568;28;20443;-52
2024/01/21 02:10:48;;;;;;;0.20;0.10;;;;;;;-4.55;100.00;101554.69;5053324;28;20841;-52
2024/01/21 02:13:15;;;;;;;0.10;0.10;;;;;;;-4.58;100.00;101546.75;5053883;28;20547;-52
2024/01/21 02:15:41;;;;;;;0.10;0.10;;;;;;;-4.53;100.00;101547.00;5052908;28;20486;-51
2024/01/21 02:18:09;;;;;;;0.10;0.10;;;;;;;-4.67;100.00;101538.50;5049623;28;20496;-52
2024/01/21 02:20:36;;;;;;;0.10;0.10;;;;;;;-4.74;100.00;101535.50;5043924;28;20447;-52
2024/01/21 02:23:06;;;;;;;0.20;0.10;;;;;;;-4.74;100.00;101530.31;5053340;28;20466;-52
2024/01/21 02:25:33;;;;;;;0.10;0.10;;;;;;;-4.74;100.00;101531.22;5045925;28;20453;-52
2024/01/21 02:27:59;;;;;;;0.10;0.10;;;;;;;-4.56;100.00;101531.28;5053180;28;20478;-52
2024/01/21 02:30:26;;;;;;;0.10;0.10;;;;;;;-4.69;100.00;101529.75;5053008;28;20453;-52
2024/01/21 02:32:52;;;;;;;0.10;0.10;;;;;;;-4.83;100.00;101513.47;5053088;28;20467;-52
2024/01/21 02:35:19;;;;;;;0.10;0.10;;;;;;;-4.57;100.00;101509.63;5053088;28;20516;-52
2024/01/21 02:37:45;;;;;;;0.10;0.10;;;;;;;-4.59;100.00;101516.44;5035186;28;20456;-52
2024/01/21 02:40:12;;;;;;;0.10;0.10;;;;;;;-4.69;100.00;101509.00;5036018;28;20455;-53
2024/01/21 02:42:38;;;;;;;0.10;0.10;;;;;;;-4.84;100.00;101497.81;5052961;28;20569;-51
2024/01/21 02:45:05;;;;;;;0.10;0.10;;;;;;;-4.99;100.00;101509.97;5052979;28;20446;-52
2024/01/21 02:47:31;;;;;;;0.10;0.10;;;;;;;-4.79;100.00;101511.94;5052793;28;20482;-53
2024/01/21 02:49:58;;;;;;;0.87;0.87;;;;;;;-4.69;100.00;101514.19;5026690;28;20482;-52
2024/01/21 02:52:24;;;;;;;0.10;0.10;;;;;;;-4.86;100.00;101499.44;5053303;28;20483;-50
2024/01/21 02:54:51;;;;;;;0.10;0.10;;;;;;;-4.75;100.00;101489.66;5052874;28;20490;-50
2024/01/21 02:57:17;;;;;;;0.10;0.10;;;;;;;-4.79;100.00;101491.19;5052714;28;20451;-50
2024/01/21 02:59:44;;;;;;;0.10;0.10;;;;;;;-4.74;100.00;101494.91;5052801;28;20490;-51
2024/01/21 03:02:10;;;;;;;0.10;0.10;;;;;;;-4.66;100.00;101491.03;5052850;28;20503;-50
2024/01/21 03:04:37;;;;;;;0.10;0.10;;;;;;;-4.54;100.00;101493.34;5052568;28;20454;-50
2024/01/21 03:07:03;;;;;;;0.20;0.10;;;;;;;-4.63;100.00;101487.69;5052424;28;20466;-50
2024/01/21 03:09:30;;;;;;;0.10;0.10;;;;;;;-4.71;100.00;101484.69;5052294;28;20447;-50
2024/01/21 03:11:57;;;;;;;0.10;0.10;;;;;;;-4.68;100.00;101489.13;5052479;28;20467;-50
2024/01/21 03:14:23;;;;;;;0.10;0.10;;;;;;;-4.58;100.00;101496.59;5052212;28;20533;-51
2024/01/21 03:16:50;;;;;;;0.10;0.10;;;;;;;-4.81;100.00;101500.56;5052425;28;20447;-50
2024/01/21 03:19:16;;;;;;;0.10;0.10;;;;;;;-4.72;100.00;101493.28;5038361;28;20856;-51
2024/01/21 03:21:42;;;;;;;0.10;0.10;;;;;;;-4.78;100.00;101488.69;5052009;28;20991;-50
2024/01/21 03:24:09;;;;;;;0.10;0.10;;;;;;;-4.63;100.00;101483.41;5051988;28;20450;-51
2024/01/21 03:26:36;;;;;;;0.10;0.10;;;;;;;-4.77;100.00;101479.19;5044284;28;20455;-50
2024/01/21 03:29:02;;;;;;;0.10;0.10;;;;;;;-4.71;100.00;101471.72;5051249;28;20534;-50
2024/01/21 03:31:29;;;;;;;0.10;0.10;;;;;;;-4.60;100.00;101473.16;5052091;28;20485;-51
2024/01/21 03:33:55;;;;;;;0.10;0.10;;;;;;;-5.06;100.00;101472.50;5051947;28;20873;-50
2024/01/21 03:36:22;;;;;;;0.10;0.10;;;;;;;-4.97;100.00;101472.06;5045608;28;20448;-50
2024/01/21 03:38:50;;;;;;;0.10;0.10;;;;;;;-5.20;100.00;101469.16;5031746;28;20491;-50
2024/01/21 03:41:17;;;;;;;0.10;0.10;;;;;;;-4.98;100.00;101473.75;5043952;28;20562;-50
2024/01/21 03:43:44;;;;;;;0.10;0.10;;;;;;;-4.89;100.00;101470.78;5051846;28;20455;-52
2024/01/21 03:46:10;;;;;;;0.10;0.10;;;;;;;-4.97;100.00;101472.06;5051910;28;20457;-51
2024/01/21 03:48:36;;;;;;;0.13;0.10;;;;;;;-4.87;100.00;101477.81;5051632;28;20453;-51
2024/01/21 03:51:04;;;;;;;0.10;0.10;;;;;;;-4.86;100.00;101476.13;5051581;28;20498;-50
2024/01/21 03:53:30;;;;;;;0.10;0.10;;;;;;;-4.89;100.00;101484.63;5051411;28;20443;-50
2024/01/21 03:55:57;;;;;;;0.10;0.10;;;;;;;-5.00;100.00;101487.47;5051705;28;20450;-50
2024/01/21 03:58:23;;;;;;;0.10;0.10;;;;;;;-4.93;100.00;101490.47;5033570;28;20486;-50
2024/01/21 04:00:49;;;;;;;0.10;0.10;;;;;;;-5.05;100.00;101486.34;5051678;28;20453;-51
2024/01/21 04:03:16;;;;;;;0.10;0.10;;;;;;;-5.24;100.00;101482.75;5051536;28;20451;-50
2024/01/21 04:05:42;;;;;;;0.10;0.10;;;;;;;-5.50;100.00;101472.66;5051570;28;20443;-50
2024/01/21 04:08:09;;;;;;;0.17;0.10;;;;;;;-5.61;100.00;101471.22;5051155;28;20517;-51
2024/01/21 04:10:35;;;;;;;0.10;0.10;;;;;;;-5.58;100.00;101469.66;5051623;28;20498;-50
2024/01/21 04:13:02;;;;;;;0.10;0.10;;;;;;;-5.19;100.00;101483.91;5051247;28;20473;-50
2024/01/21 04:15:28;;;;;;;0.10;0.10;;;;;;;-5.20;100.00;101478.63;5051471;28;20533;-50
2024/01/21 04:17:55;;;;;;;0.10;0.10;;;;;;;-5.05;100.00;101481.16;5051184;28;20458;-50
2024/01/21 04:20:21;;;;;;;0.10;0.10;;;;;;;-5.15;100.00;101484.94;5038618;28;20449;-50
2024/01/21 04:22:48;;;;;;;0.10;0.10;;;;;;;-5.09;100.00;101486.16;5051038;28;20558;-50
2024/01/21 04:25:14;;;;;;;0.10;0.10;;;;;;;-4.98;100.00;101501.38;5044170;28;20949;-51
2024/01/21 04:27:41;;;;;;;0.10;0.10;;;;;;;-5.03;100.00;101508.94;5051288;28;20461;-52
2024/01/21 04:30:08;;;;;;;0.10;0.10;;;;;;;-5.03;100.00;101503.75;5051191;28;20453;-50
2024/01/21 04:32:35;;;;;;;0.10;0.10;;;;;;;-5.00;100.00;101505.59;5051231;28;20553;-50
2024/01/21 04:35:01;;;;;;;0.10;0.10;;;;;;;-5.05;100.00;101509.66;5051149;28;20474;-50
2024/01/21 04:37:28;;;;;;;0.10;0.10;;;;;;;-5.12;100.00;101516.19;5036365;28;20506;-50
2024/01/21 04:39:54;;;;;;;0.10;0.10;;;;;;;-5.03;100.00;101510.63;5032596;28;20499;-51
2024/01/21 04:42:21;;;;;;;0.20;0.10;;;;;;;-5.09;100.00;101500.81;5055333;28;20843;-51
2024/01/21 04:44:47;;;;;;;0.10;0.10;;;;;;;-5.18;100.00;101509.00;5055104;28;20470;-50
2024/01/21 04:47:14;;;;;;;0.10;0.10;;;;;;;-5.09;100.00;101496.50;5055232;28;20451;-50
2024/01/21 04:49:40;;;;;;;0.10;0.10;;;;;;;-5.24;100.00;101492.22;5054024;28;20449;-50
2024/01/21 04:52:07;;;;;;;0.10;0.10;;;;;;;-5.36;100.00;101485.56;5054850;28;20485;-50
2024/01/21 04:54:33;;;;;;;0.10;0.10;;;;;;;-5.30;100.00;101482.44;5055004;28;20454;-50
2024/01/21 04:57:00;;;;;;;0.10;0.10;;;;;;;-5.26;100.00;101479.19;5055046;28;20461;-50
2024/01/21 04:59:26;;;;;;;0.10;0.10;;;;;;;-5.43;100.00;101482.56;5054737;28;20486;-50
2024/01/21 05:01:53;;;;;;;0.10;0.10;;;;;;;-5.32;100.00;101483.16;5054893;28;20466;-50
2024/01/21 05:04:19;;;;;;;0.10;0.10;;;;;;;-5.30;100.00;101468.59;5054624;28;20458;-50
2024/01/21 05:06:46;;;;;;;0.10;0.10;;;;;;;-5.30;99.79;101461.69;5054772;28;20525;-50
2024/01/21 05:09:12;;;;;;;0.60;0.60;;;;;;;-5.28;99.82;101454.91;5048198;28;20880;-50
2024/01/21 05:11:39;;;;;;;0.10;0.10;;;;;;;-5.29;99.83;101455.69;5054780;28;20469;-51
2024/01/21 05:14:05;;;;;;;0.10;0.10;;;;;;;-5.43;99.83;101447.19;5054514;28;20461;-50
2024/01/21 05:16:32;;;;;;;0.10;0.10;;;;;;;-5.38;99.54;101450.03;5054653;28;20868;-50
2024/01/21 05:18:58;;;;;;;0.10;0.10;;;;;;;-5.37;99.62;101451.78;5041054;28;20485;-51
2024/01/21 05:21:24;;;;;;;0.20;0.10;;;;;;;-5.38;99.50;101452.59;5054651;28;20515;-51
2024/01/21 05:23:52;;;;;;;0.10;0.10;;;;;;;-5.55;99.15;101450.81;5054023;28;20446;-50
2024/01/21 05:26:19;;;;;;;0.10;0.10;;;;;;;-5.55;99.85;101454.28;5047177;28;20442;-49
2024/01/21 05:28:46;;;;;;;0.10;0.10;;;;;;;-5.61;99.76;101460.84;5054057;28;20489;-50
2024/01/21 05:31:13;;;;;;;0.10;0.10;;;;;;;-5.54;98.87;101448.31;5053920;28;20471;-50
2024/01/21 05:33:40;;;;;;;0.10;0.10;;;;;;;-5.53;99.11;101456.97;5050603;28;20482;-51
2024/01/21 05:36:09;;;;;;;0.10;0.10;;;;;;;-5.74;98.14;101447.22;5050306;28;20447;-50
2024/01/21 05:38:36;;;;;;;0.10;0.10;;;;;;;-5.54;98.66;101434.47;5034289;28;20574;-50
2024/01/21 05:41:02;;;;;;;0.10;0.10;;;;;;;-5.72;97.73;101435.25;5044040;28;21050;-50
2024/01/21 05:43:29;;;;;;;0.10;0.10;;;;;;;-6.22;97.95;101431.56;5054036;28;20459;-51
2024/01/21 05:45:55;;;;;;;0.10;0.10;;;;;;;-5.92;97.37;101424.63;5054073;28;20475;-49
2024/01/21 05:48:22;;;;;;;0.10;0.10;;;;;;;-5.89;97.52;101430.84;5043930;28;20947;-50
2024/01/21 05:50:49;;;;;;;0.10;0.10;;;;;;;-6.23;97.15;101437.53;5053731;28;20458;-50
2024/01/21 05:53:15;;;;;;;0.10;0.10;;;;;;;-6.34;98.87;101449.84;5035508;28;20465;-50
2024/01/21 05:55:42;;;;;;;0.10;0.10;;;;;;;-6.12;98.98;101436.44;5046598;28;20442;-50
2024/01/21 05:58:09;;;;;;;0.20;0.10;;;;;;;-6.07;99.19;101443.66;5053048;28;20443;-50
2024/01/21 06:00:35;;;;;;;0.93;0.93;;;;;;;-5.93;98.59;101441.84;5053642;28;20932;-50
2024/01/21 06:03:02;;;;;;;0.10;0.10;;;;;;;-5.97;99.08;101438.19;5053760;28;20470;-50
2024/01/21 06:05:28;;;;;;;0.10;0.10;;;;;;;-5.87;98.96;101439.59;5053837;28;20936;-50
2024/01/21 06:07:55;;;;;;;0.10;0.10;;;;;;;-5.97;98.89;101433.03;5053838;28;20451;-50
2024/01/21 06:10:22;;;;;;;0.20;0.10;;;;;;;-5.94;98.80;101426.22;5049189;28;20467;-49
2024/01/21 06:12:48;;;;;;;0.10;0.10;;;;;;;-5.93;98.78;101438.38;5050641;28;20470;-51
2024/01/21 06:15:15;;;;;;;0.10;0.10;;;;;;;-5.95;98.35;101443.47;5053461;28;20458;-53
2024/01/21 06:17:41;;;;;;;0.10;0.10;;;;;;;-5.85;98.21;101437.06;5053421;28;20451;-52
2024/01/21 06:20:09;;;;;;;0.10;0.10;;;;;;;-6.05;97.53;101451.50;5032747;28;20545;-50
2024/01/21 06:22:38;;;;;;;0.10;0.10;;;;;;;-5.91;97.98;101449.69;5051194;28;20463;-50
2024/01/21 06:25:05;;;;;;;0.10;0.10;;;;;;;-6.16;97.75;101463.84;5053163;28;20458;-50
2024/01/21 06:27:31;;;;;;;0.10;0.10;;;;;;;-6.02;98.51;101468.13;5053568;28;20890;-50
2024/01/21 06:30:10;;;;;;;0.10;0.10;;;;;;;-6.13;98.10;101476.06;5053186;28;20443;-50
2024/01/21 06:32:37;;;;;;;0.10;0.10;;;;;;;-5.95;97.76;101459.00;5053134;28;21045;-50
2024/01/21 06:35:05;;;;;;;0.10;0.10;;;;;;;-6.19;97.30;101467.94;5053156;28;20450;-50
2024/01/21 06:37:32;;;;;;;0.10;0.10;;;;;;;-6.11;97.56;101469.28;5037122;28;20455;-50
2024/01/21 06:39:58;;;;;;;0.10;0.10;;;;;;;-6.22;97.48;101472.94;5047030;28;20518;-50
2024/01/21 06:42:31;;;;;;;0.10;0.10;;;;;;;-6.31;97.35;101465.53;5053204;28;20467;-50
2024/01/21 06:44:58;;;;;;;0.10;0.10;;;;;;;-6.07;97.46;101441.06;5052954;28;20825;-50
2024/01/21 06:47:24;;;;;;;0.10;0.10;;;;;;;-6.50;97.58;101427.38;5044258;28;20448;-51
2024/01/21 06:49:51;;;;;;;0.10;0.10;;;;;;;-6.72;98.53;101421.75;5022703;28;20445;-49
2024/01/21 06:52:18;;;;;;;0.10;0.10;;;;;;;-6.25;98.78;101415.88;5034807;28;20500;-50
2024/01/21 06:54:44;;;;;;;0.13;0.10;;;;;;;-6.28;97.67;101443.34;5051999;28;20817;-50
2024/01/21 06:57:11;;;;;;;0.10;0.10;;;;;;;-6.12;97.97;101446.81;5052909;28;20453;-51
2024/01/21 06:59:37;;;;;;;0.30;0.30;;;;;;;-6.24;97.30;101454.75;5052628;28;20495;-50
2024/01/21 07:02:04;;;;;;;0.10;0.10;;;;;;;-6.03;97.20;101457.66;5052662;28;20494;-50
2024/01/21 07:04:31;;;;;;;0.10;0.10;;;;;;;-6.12;97.11;101450.28;5052505;28;20447;-50
2024/01/21 07:06:57;;;;;;;0.10;0.10;;;;;;;-6.12;97.67;101454.56;5052493;28;20450;-50
2024/01/21 07:09:25;;;;;;;0.10;0.10;;;;;;;-5.90;97.02;101464.41;5052296;28;20890;-50
2024/01/21 07:11:51;;;;;;;0.10;0.10;;;;;;;-6.07;96.29;101463.47;5052281;28;20510;-50
2024/01/21 07:14:18;;;;;;;0.10;0.10;;;;;;;-6.17;97.04;101474.09;5052374;28;20447;-50
2024/01/21 07:16:44;;;;;;;0.10;0.10;;;;;;;-5.97;97.85;101478.72;5052365;28;20450;-51
2024/01/21 07:19:10;;;;;;;0.10;0.10;;;;;;;-6.15;96.40;101488.03;5037963;28;20570;-50
2024/01/21 07:21:37;;;;;;;0.10;0.10;;;;;;;-6.21;96.74;101478.19;5052124;28;20641;-51
2024/01/21 07:24:04;;;;;;;0.10;0.10;;;;;;;-6.24;96.88;101479.72;5052345;28;20451;-55
2024/01/21 07:26:31;;;;;;;0.10;0.10;;;;;;;-6.14;96.88;101469.13;5052542;28;20841;-52
2024/01/21 07:28:57;;;;;;;0.10;0.10;;;;;;;-6.06;96.58;101457.47;5052033;28;20474;-50
2024/01/21 07:31:24;;;;;;;0.90;0.90;;;;;;;-6.03;96.36;101471.50;5052147;28;20473;-50
2024/01/21 07:33:51;;;;;;;15.97;13.57;;;;;;;-5.89;96.53;101458.41;5051996;28;20460;-50
2024/01/21 07:36:17;;;;;;;0.10;0.10;;;;;;;-5.82;96.13;101450.19;5046268;28;20451;-50
2024/01/21 07:38:44;;;;;;;0.10;0.10;;;;;;;-6.11;96.27;101449.47;5031944;28;20499;-50
2024/01/21 07:41:10;;;;;;;0.10;0.10;;;;;;;-5.94;96.30;101455.59;5042966;28;20573;-50
2024/01/21 07:43:37;;;;;;;0.10;0.10;;;;;;;-6.09;95.59;101442.69;5051752;28;20455;-50
2024/01/21 07:46:05;;;;;;;0.10;0.10;;;;;;;-6.08;96.65;101449.63;5048065;28;21004;-50
2024/01/21 07:48:31;;;;;;;0.10;0.10;;;;;;;-6.20;95.99;101453.22;5027188;28;20449;-50
2024/01/21 07:50:58;;;;;;;0.10;0.10;;;;;;;-6.12;95.86;101452.88;5034817;28;20451;-50
2024/01/21 07:53:25;;;;;;;0.10;0.10;;;;;;;-6.13;95.40;101456.25;5051610;28;20541;-51
2024/01/21 07:55:54;;;;;;;0.10;0.10;;;;;;;-6.28;95.16;101458.88;5051839;28;20457;-50
2024/01/21 07:58:20;;;;;;;0.10;0.10;;;;;;;-6.46;94.73;101451.72;5051804;28;20506;-50
2024/01/21 08:00:47;;;;;;;0.10;0.10;;;;;;;-6.22;95.07;101472.94;5051607;28;20673;-50
2024/01/21 08:03:13;;;;;;;0.10;0.10;;;;;;;-5.92;94.97;101476.38;5051599;28;20451;-50
2024/01/21 08:05:40;;;;;;;0.10;0.10;;;;;;;-6.15;93.72;101477.69;5051482;28;20969;-50
2024/01/21 08:08:06;;;;;;;0.20;0.10;;;;;;;-6.18;94.06;101477.47;5051460;28;20451;-50
2024/01/21 08:10:33;;;;;;;0.10;0.10;;;;;;;-6.21;94.76;101485.06;5051399;28;20998;-50
2024/01/21 08:13:00;;;;;;;0.10;0.10;;;;;;;-6.15;94.13;101481.16;5051634;28;20477;-51
2024/01/21 08:15:27;;;;;;;0.10;0.10;;;;;;;-6.28;94.56;101479.56;5051006;28;20451;-50
2024/01/21 08:17:54;;;;;;;0.10;0.10;;;;;;;-6.34;94.13;101474.00;5051153;28;21423;-51
2024/01/21 08:20:20;;;;;;;0.10;0.10;;;;;;;-6.13;94.58;101471.78;5038827;28;20548;-50
2024/01/21 08:22:47;;;;;;;0.10;0.10;;;;;;;-6.29;94.24;101454.50;5051281;28;20486;-51
2024/01/21 08:25:14;;;;;;;0.10;0.10;;;;;;;-5.98;94.98;101454.53;5051306;28;20457;-51
2024/01/21 08:27:41;;;;;;;0.10;0.10;;;;;;;-6.04;94.55;101451.59;5044256;28;20443;-50
2024/01/21 08:30:09;;;;;;;0.10;0.10;;;;;;;-6.03;94.07;101449.88;5050710;28;20501;-51
2024/01/21 08:32:36;;;;;;;0.20;0.20;;;;;;;-5.95;94.06;101456.41;5050645;28;20558;-51
2024/01/21 08:35:03;;;;;;;2.00;1.17;;;;;;;-6.03;93.69;101448.22;5050662;28;20450;-50
2024/01/21 08:37:30;;;;;;;0.10;0.10;;;;;;;-5.94;93.89;101441.75;5036216;28;20445;-51
2024/01/21 08:39:57;;;;;;;0.20;0.10;;;;;;;-5.70;94.03;101467.28;5032262;28;20607;-50
2024/01/21 08:42:24;;;;;;;0.10;0.10;;;;;;;-5.90;93.92;101487.69;5051270;28;20948;-51
2024/01/21 08:44:51;;;;;;;0.10;0.10;;;;;;;-5.89;94.29;101511.09;5051057;28;20450;-50
2024/01/21 08:47:17;;;;;;;0.10;0.10;;;;;;;-5.74;94.37;101511.94;5043364;28;20535;-51
2024/01/21 08:49:44;;;;;;;0.10;0.10;;;;;;;-5.81;94.01;101527.03;5045566;28;20474;-51
2024/01/21 08:52:11;;;;;;;0.17;0.10;;;;;;;-5.77;94.26;101532.47;5051653;28;20528;-53
2024/01/21 08:54:38;;;;;;;0.10;0.10;;;;;;;-5.73;94.28;101525.78;5051346;28;20486;-53
2024/01/21 08:57:05;;;;;;;0.10;0.10;;;;;;;-5.83;94.37;101516.59;5051572;28;20446;-52
2024/01/21 08:59:32;;;;;;;0.10;0.10;;;;;;;-5.77;94.67;101500.50;5051186;28;20479;-53
2024/01/21 09:01:59;;;;;;;0.10;0.10;;;;;;;-5.70;94.81;101506.13;5051508;28;20502;-53
2024/01/21 09:04:25;;;;;;;0.10;0.10;;;;;;;-5.61;94.54;101499.69;5051169;28;20456;-54
2024/01/21 09:06:52;;;;;;;0.20;0.20;;;;;;;-5.75;93.34;101494.63;5051434;28;20455;-53
2024/01/21 09:09:18;;;;;;;0.20;0.10;;;;;;;-5.87;93.25;101482.69;5050905;28;20462;-53
2024/01/21 09:11:47;;;;;;;0.10;0.10;;;;;;;-5.92;94.70;101472.09;5046101;28;20524;-52
2024/01/21 09:14:13;;;;;;;0.10;0.10;;;;;;;-5.84;94.34;101464.75;5051247;28;20451;-52
2024/01/21 09:16:41;;;;;;;0.10;0.10;;;;;;;-6.05;95.74;101467.03;5051248;28;20469;-52
2024/01/21 09:19:07;;;;;;;0.20;0.20;;;;;;;-5.89;94.83;101472.25;5036420;28;20475;-53
2024/01/21 09:21:34;;;;;;;0.10;0.10;;;;;;;-5.32;95.19;101484.03;5050953;28;20502;-52
2024/01/21 09:24:04;;;;;;;0.10;0.10;;;;;;;-5.33;94.98;101495.22;5050726;28;20451;-54
2024/01/21 09:26:31;;;;;;;0.10;0.10;;;;;;;-5.34;95.02;101508.97;5053132;28;20447;-53
2024/01/21 09:28:57;;;;;;;0.20;0.10;;;;;;;-5.35;95.53;101530.47;5048801;28;20920;-53
2024/01/21 09:31:24;;;;;;;0.10;0.10;;;;;;;-5.18;95.74;101554.75;5054816;28;20455;-53
2024/01/21 09:33:50;;;;;;;0.10;0.10;;;;;;;-5.07;95.76;101577.88;5055137;28;20446;-53
2024/01/21 09:36:19;;;;;;;0.10;0.10;;;;;;;-5.12;95.12;101583.56;5049378;28;20458;-53
2024/01/21 09:38:45;;;;;;;0.10;0.10;;;;;;;-5.12;95.48;101588.75;5034844;28;20476;-53
2024/01/21 09:41:35;;;;;;;0.10;0.10;;;;;;;-5.16;94.57;101603.25;5045366;28;20573;-52
2024/01/21 09:44:02;;;;;;;0.10;0.10;;;;;;;-5.14;93.77;101612.00;5029617;28;20457;-53
2024/01/21 09:46:29;;;;;;;0.10;0.10;;;;;;;-5.30;94.64;101619.72;5054018;28;20558;-53
2024/01/21 09:48:59;;;;;;;0.10;0.10;;;;;;;-5.27;94.49;101616.41;5053871;28;20899;-53
2024/01/21 09:51:29;;;;;;;0.10;0.10;;;;;;;-5.29;94.44;101595.59;5053904;28;20854;-52
2024/01/21 09:53:56;;;;;;;0.10;0.10;;;;;;;-4.98;93.96;101585.22;5053750;28;20954;-52
2024/01/21 09:56:22;;;;;;;0.10;0.10;;;;;;;-4.87;94.22;101589.31;5053979;28;20474;-52
2024/01/21 09:58:51;;;;;;;0.10;0.10;;;;;;;-4.85;94.22;101590.28;5054288;28;20450;-51
2024/01/21 10:01:18;;;;;;;0.10;0.10;;;;;;;-4.78;93.88;101587.22;5052841;28;20492;-50
2024/01/21 10:03:46;;;;;;;12.47;11.30;;;;;;;-4.74;93.39;101592.56;5053878;28;20466;-51
2024/01/21 10:06:13;;;;;;;0.10;0.10;;;;;;;-5.05;91.92;101590.00;5053568;28;20965;-52
2024/01/21 10:08:40;;;;;;;0.10;0.10;;;;;;;-4.89;92.15;101577.97;5053565;28;20451;-53
2024/01/21 10:11:07;;;;;;;0.10;0.10;;;;;;;-4.94;93.00;101573.31;5053560;28;20505;-53
2024/01/21 10:13:36;;;;;;;0.20;0.10;;;;;;;-4.52;93.63;101586.00;5044749;28;20454;-52
2024/01/21 10:16:03;;;;;;;0.10;0.10;;;;;;;-4.69;92.82;101584.19;5050921;28;20454;-53
2024/01/21 10:18:30;;;;;;;0.10;0.10;;;;;;;-4.39;92.56;101579.75;5048481;28;20435;-54
2024/01/21 10:20:58;;;;;;;0.10;0.10;;;;;;;-4.45;93.74;101571.66;5050761;28;20493;-52
2024/01/21 10:23:26;;;;;;;0.20;0.10;;;;;;;-4.64;91.93;101572.41;5053547;28;20473;-52
2024/01/21 10:25:52;;;;;;;0.10;0.10;;;;;;;-4.41;92.61;101570.09;5052075;28;20881;-54
2024/01/21 10:28:20;;;;;;;0.10;0.10;;;;;;;-4.57;92.10;101539.88;5043298;28;20458;-53
2024/01/21 10:30:47;;;;;;;0.10;0.10;;;;;;;-4.46;93.09;101520.56;5047764;28;20470;-54
2024/01/21 10:33:14;;;;;;;0.10;0.10;;;;;;;-4.60;93.09;101526.75;5053579;28;20931;-54
2024/01/21 10:35:42;;;;;;;0.20;0.10;;;;;;;-4.91;93.67;101527.72;5041948;28;20475;-52
2024/01/21 10:38:12;;;;;;;0.10;0.10;;;;;;;-4.46;94.33;101556.91;5039893;28;20538;-54
2024/01/21 10:40:43;;;;;;;0.20;0.20;;;;;;;-4.27;93.24;101541.44;5032267;28;20871;-53
2024/01/21 10:43:14;;;;;;;0.20;0.10;;;;;;;-4.31;92.92;101542.13;5019835;28;20467;-53
2024/01/21 10:45:45;;;;;;;0.10;0.10;;;;;;;-4.30;91.97;101530.91;5044476;28;20450;-51
2024/01/21 10:48:13;;;;;;;0.17;0.10;;;;;;;-4.19;92.65;101503.81;5050546;28;20451;-52
2024/01/21 10:50:42;;;;;;;0.10;0.10;;;;;;;-4.13;92.90;101498.03;5025660;28;20448;-51
2024/01/21 10:53:12;;;;;;;0.10;0.10;;;;;;;-4.30;92.07;101501.47;5047740;28;20462;-52
2024/01/21 10:55:42;;;;;;;0.10;0.10;;;;;;;-4.21;93.02;101486.38;5053158;28;20594;-53
2024/01/21 10:58:09;;;;;;;0.20;0.10;;;;;;;-3.87;93.23;101484.63;5052854;28;20542;-53
2024/01/21 11:00:37;;;;;;;0.20;0.20;;;;;;;-4.04;92.28;101476.84;5046990;28;20486;-53
2024/01/21 11:03:25;;;;;;;0.20;0.10;;;;;;;-4.00;91.50;101468.38;5045011;28;20456;-53
2024/01/21 11:06:00;;;;;;;0.13;0.10;;;;;;;-3.77;92.87;101462.59;5031135;28;20913;-55
2024/01/21 11:08:28;;;;;;;0.10;0.10;;;;;;;-3.69;92.72;101466.47;5028273;28;20470;-53
2024/01/21 11:11:22;;;;;;;0.10;0.10;;;;;;;-3.75;92.97;101458.34;5047169;28;20451;-53
2024/01/21 11:13:52;;;;;;;0.10;0.10;;;;;;;-3.50;93.23;101473.41;5046644;28;20508;-53
2024/01/21 11:16:30;;;;;;;0.20;0.10;;;;;;;-3.45;92.93;101452.81;5053012;28;20967;-54
2024/01/21 11:18:58;;;;;;;0.20;0.10;;;;;;;-3.46;92.16;101435.44;5038313;28;20453;-54
2024/01/21 11:21:27;;;;;;;0.20;0.10;;;;;;;-3.45;92.31;101419.91;5052518;28;20502;-53